Time;durP1;ratioP1;P1;durP2;ratioP2;P2;SDS_P1;SDS_P2;PMS_P1;PMS_P2;Temp;Humidity;BMP_temperature;BMP_pressure;BME280_temperature;BME280_humidity;BME280_pressure;Samples;Min_cycle;Max_cycle;Signal;HPM_P1;HPM_P2
2023/09/21 00:01:03;;;;;;;4.10;2.95;;;18.60;39.00;;;;;;5093236;28;20448;-76
2023/09/21 00:03:29;;;;;;;5.70;2.80;;;18.70;38.90;;;;;;5093420;28;20386;-76
2023/09/21 00:05:58;;;;;;;7.43;2.90;;;18.60;39.20;;;;;;5092193;28;20424;-76
2023/09/21 00:08:24;;;;;;;5.75;2.97;;;18.60;39.30;;;;;;5090246;28;20736;-77
2023/09/21 00:10:54;;;;;;;7.77;3.10;;;18.60;39.20;;;;;;5091579;28;20420;-76
2023/09/21 00:13:26;;;;;;;4.38;2.92;;;18.60;39.00;;;;;;5091377;28;20462;-75
2023/09/21 00:15:53;;;;;;;3.95;2.88;;;18.60;39.30;;;;;;5092961;28;20716;-76
2023/09/21 00:18:21;;;;;;;7.57;3.30;;;18.60;39.60;;;;;;5091684;28;20374;-75
2023/09/21 00:20:52;;;;;;;4.50;2.83;;;18.60;39.40;;;;;;5090894;28;20373;-76
2023/09/21 00:23:18;;;;;;;5.63;3.58;;;18.60;39.50;;;;;;5091312;28;20458;-74
2023/09/21 00:25:44;;;;;;;25.10;10.82;;;18.60;39.30;;;;;;5090281;28;20476;-75
2023/09/21 00:28:12;;;;;;;4.90;3.00;;;18.60;39.50;;;;;;5091034;28;20378;-77
2023/09/21 00:30:39;;;;;;;3.10;2.75;;;18.50;39.30;;;;;;5089884;28;20390;-75
2023/09/21 00:33:08;;;;;;;6.50;3.15;;;18.50;39.20;;;;;;5090879;28;20501;-76
2023/09/21 00:35:39;;;;;;;6.10;3.10;;;18.50;39.50;;;;;;5091350;28;20385;-76
2023/09/21 00:38:07;;;;;;;4.22;2.95;;;18.60;39.30;;;;;;5091534;28;20395;-76
2023/09/21 00:40:32;;;;;;;5.53;2.92;;;18.50;40.00;;;;;;5091415;28;20424;-76
2023/09/21 00:43:01;;;;;;;7.07;2.70;;;18.50;39.70;;;;;;5091058;28;20412;-76
2023/09/21 00:45:26;;;;;;;3.88;2.95;;;18.50;39.70;;;;;;5091058;28;20404;-76
2023/09/21 00:47:54;;;;;;;7.03;3.05;;;18.40;39.60;;;;;;5089622;28;20382;-76
2023/09/21 00:50:22;;;;;;;4.90;2.70;;;18.50;39.20;;;;;;5090979;28;20792;-76
2023/09/21 00:52:51;;;;;;;3.15;2.38;;;18.40;39.90;;;;;;5091259;28;20490;-76
2023/09/21 00:55:24;;;;;;;3.80;2.75;;;18.40;39.40;;;;;;5089965;28;20801;-77
2023/09/21 00:57:55;;;;;;;6.50;2.80;;;18.40;39.50;;;;;;5091431;28;20389;-77
2023/09/21 01:00:28;;;;;;;5.00;2.92;;;18.40;39.80;;;;;;5091253;28;20393;-75
2023/09/21 01:02:57;;;;;;;3.58;2.67;;;18.30;39.90;;;;;;5090783;28;20378;-77
2023/09/21 01:05:23;;;;;;;5.20;3.20;;;18.30;39.70;;;;;;5091173;28;20378;-76
2023/09/21 01:07:50;;;;;;;3.20;2.50;;;18.30;40.40;;;;;;5090932;28;21021;-76
2023/09/21 01:10:21;;;;;;;4.60;2.72;;;18.10;40.40;;;;;;5092770;28;20395;-73
2023/09/21 01:12:51;;;;;;;6.00;2.90;;;18.20;40.20;;;;;;5091855;28;20522;-77
2023/09/21 01:15:17;;;;;;;3.67;2.63;;;18.10;40.30;;;;;;5090908;28;20850;-75
2023/09/21 01:17:47;;;;;;;7.30;2.90;;;18.10;40.20;;;;;;5090658;28;20793;-75
2023/09/21 01:20:23;;;;;;;4.05;2.83;;;18.10;40.40;;;;;;5090584;28;20401;-76
2023/09/21 01:23:18;;;;;;;8.15;2.50;;;18.10;40.10;;;;;;5090653;28;20703;-76
2023/09/21 01:25:50;;;;;;;5.25;2.80;;;18.10;40.40;;;;;;5090189;28;20402;-76
2023/09/21 01:28:20;;;;;;;4.95;2.50;;;18.10;40.40;;;;;;5091355;28;20397;-76
2023/09/21 01:30:47;;;;;;;5.30;2.70;;;18.10;40.10;;;;;;5090313;28;20744;-76
2023/09/21 01:33:15;;;;;;;4.22;2.83;;;18.20;40.30;;;;;;5089084;28;20402;-76
2023/09/21 01:35:44;;;;;;;6.35;2.92;;;18.10;40.30;;;;;;5090375;28;20374;-77
2023/09/21 01:38:12;;;;;;;6.03;2.95;;;18.10;40.20;;;;;;5090237;28;20466;-77
2023/09/21 01:40:39;;;;;;;6.80;2.70;;;18.10;40.20;;;;;;5090872;28;20402;-75
2023/09/21 01:43:15;;;;;;;6.40;2.75;;;18.20;39.80;;;;;;5090007;28;20385;-76
2023/09/21 01:45:42;;;;;;;4.72;2.50;;;18.10;40.30;;;;;;5090192;28;20786;-75
2023/09/21 01:48:09;;;;;;;6.68;2.97;;;18.10;40.00;;;;;;5090508;28;20481;-77
2023/09/21 01:50:41;;;;;;;6.17;2.80;;;18.20;39.90;;;;;;5090484;28;20551;-75
2023/09/21 01:53:09;;;;;;;4.57;2.80;;;18.10;39.90;;;;;;5090059;28;20412;-75
2023/09/21 01:55:35;;;;;;;4.15;2.58;;;18.10;40.30;;;;;;5089177;28;20378;-74
2023/09/21 01:58:02;;;;;;;4.20;2.77;;;18.00;40.20;;;;;;5089144;28;20378;-75
2023/09/21 02:00:29;;;;;;;4.68;2.70;;;18.10;40.40;;;;;;5093193;28;20427;-75
2023/09/21 02:02:55;;;;;;;5.68;3.00;;;18.00;40.80;;;;;;5093982;28;20389;-75
2023/09/21 02:05:21;;;;;;;5.43;2.80;;;18.00;40.30;;;;;;5093759;28;20511;-76
2023/09/21 02:07:47;;;;;;;4.75;2.40;;;18.00;40.30;;;;;;5093833;28;20385;-76
2023/09/21 02:10:16;;;;;;;4.95;2.50;;;18.10;40.50;;;;;;5093804;28;20403;-76
2023/09/21 02:12:55;;;;;;;5.00;2.70;;;18.00;40.30;;;;;;5093278;28;20401;-76
2023/09/21 02:15:21;;;;;;;7.20;3.15;;;18.10;40.00;;;;;;5093913;28;20381;-74
2023/09/21 02:17:47;;;;;;;5.60;2.80;;;18.00;40.10;;;;;;5093633;28;20374;-75
2023/09/21 02:20:14;;;;;;;5.50;3.00;;;18.00;39.90;;;;;;5093917;28;20382;-75
2023/09/21 02:22:52;;;;;;;8.13;3.20;;;18.00;40.60;;;;;;5093160;28;20469;-76
2023/09/21 02:25:19;;;;;;;3.95;2.70;;;18.00;40.10;;;;;;5093372;28;20450;-76
2023/09/21 02:27:48;;;;;;;3.57;2.80;;;17.90;40.40;;;;;;5094028;28;20916;-77
2023/09/21 02:30:17;;;;;;;4.97;2.50;;;18.00;40.50;;;;;;5094260;28;20418;-75
2023/09/21 02:32:43;;;;;;;5.13;3.30;;;17.90;39.30;;;;;;5093600;28;20405;-76
2023/09/21 02:35:16;;;;;;;5.93;2.70;;;18.00;39.60;;;;;;5093076;28;20380;-76
2023/09/21 02:37:43;;;;;;;4.28;2.83;;;18.00;39.70;;;;;;5093240;28;20377;-76
2023/09/21 02:40:10;;;;;;;4.78;2.50;;;18.00;40.00;;;;;;5093618;28;20950;-76
2023/09/21 02:42:36;;;;;;;4.05;2.50;;;18.00;39.70;;;;;;5093468;28;20382;-75
2023/09/21 02:45:04;;;;;;;3.87;2.70;;;17.90;39.90;;;;;;5092109;28;20398;-76
2023/09/21 02:47:30;;;;;;;6.20;4.75;;;17.90;40.00;;;;;;5093356;28;20461;-76
2023/09/21 02:49:56;;;;;;;4.88;2.60;;;17.90;40.60;;;;;;5093038;28;20417;-76
2023/09/21 02:52:21;;;;;;;3.90;2.60;;;17.90;40.50;;;;;;5093023;28;20394;-75
2023/09/21 02:54:47;;;;;;;3.97;2.60;;;17.90;40.00;;;;;;5092216;28;20382;-76
2023/09/21 02:57:12;;;;;;;3.78;2.70;;;17.90;39.90;;;;;;5092207;28;20390;-76
2023/09/21 02:59:38;;;;;;;4.90;3.30;;;17.90;40.30;;;;;;5094238;28;20385;-75
2023/09/21 03:02:04;;;;;;;4.83;2.93;;;17.90;40.40;;;;;;5093246;28;20393;-76
2023/09/21 03:04:31;;;;;;;7.43;3.17;;;17.90;40.30;;;;;;5093358;28;20380;-77
2023/09/21 03:06:57;;;;;;;8.52;2.80;;;17.80;39.90;;;;;;5091539;28;20473;-75
2023/09/21 03:09:23;;;;;;;3.70;2.80;;;17.90;39.90;;;;;;5092417;28;20465;-75
2023/09/21 03:11:48;;;;;;;4.93;2.63;;;17.80;40.20;;;;;;5092571;28;20401;-75
2023/09/21 03:14:14;;;;;;;3.80;2.50;;;17.80;41.10;;;;;;5092420;28;21385;-75
2023/09/21 03:16:43;;;;;;;4.00;2.63;;;17.80;41.30;;;;;;5091160;28;20461;-74
2023/09/21 03:19:09;;;;;;;8.13;2.70;;;17.80;40.30;;;;;;5092401;28;20375;-75
2023/09/21 03:21:35;;;;;;;4.50;3.15;;;17.80;40.30;;;;;;5091985;28;20481;-76
2023/09/21 03:24:01;;;;;;;7.20;2.90;;;17.80;40.20;;;;;;5091996;28;20882;-75
2023/09/21 03:26:27;;;;;;;3.38;2.45;;;17.80;40.00;;;;;;5091896;28;20461;-75
2023/09/21 03:28:52;;;;;;;3.70;2.90;;;17.80;40.20;;;;;;5092226;28;20477;-75
2023/09/21 03:31:18;;;;;;;5.43;3.00;;;17.90;39.80;;;;;;5091332;28;20422;-75
2023/09/21 03:33:46;;;;;;;8.65;2.97;;;17.80;40.20;;;;;;5092278;28;20755;-75
2023/09/21 03:36:13;;;;;;;3.75;2.47;;;17.90;40.30;;;;;;5092559;28;20385;-76
2023/09/21 03:38:40;;;;;;;5.53;3.00;;;17.90;39.90;;;;;;5092809;28;20504;-75
2023/09/21 03:41:05;;;;;;;5.97;3.10;;;17.80;40.50;;;;;;5092536;28;20381;-74
2023/09/21 03:43:31;;;;;;;3.40;3.00;;;17.70;40.60;;;;;;5092589;28;20383;-75
2023/09/21 03:45:56;;;;;;;5.50;2.60;;;17.70;41.10;;;;;;5094081;28;20449;-74
2023/09/21 03:48:22;;;;;;;3.85;2.70;;;17.70;41.00;;;;;;5097498;28;20400;-74
2023/09/21 03:50:52;;;;;;;6.27;2.93;;;17.80;40.40;;;;;;5096025;28;20386;-75
2023/09/21 03:53:17;;;;;;;4.23;2.60;;;17.80;40.80;;;;;;5094017;28;20409;-75
2023/09/21 03:55:46;;;;;;;5.00;2.80;;;17.90;40.30;;;;;;5091691;28;20374;-74
2023/09/21 03:58:12;;;;;;;3.63;2.63;;;18.00;39.60;;;;;;5091320;28;20416;-75
2023/09/21 04:00:38;;;;;;;5.07;2.60;;;18.10;39.30;;;;;;5091451;28;20420;-76
2023/09/21 04:03:08;;;;;;;4.50;2.95;;;18.20;38.80;;;;;;5091057;28;20732;-75
2023/09/21 04:05:35;;;;;;;5.07;2.85;;;18.20;38.50;;;;;;5091425;28;20381;-75
2023/09/21 04:08:02;;;;;;;5.10;2.85;;;18.20;39.00;;;;;;5089895;28;20911;-75
2023/09/21 04:10:31;;;;;;;4.45;2.85;;;18.20;38.20;;;;;;5091322;28;20465;-75
2023/09/21 04:12:56;;;;;;;5.00;2.60;;;18.20;38.60;;;;;;5090672;28;20836;-76
2023/09/21 04:15:24;;;;;;;5.83;2.50;;;18.30;38.20;;;;;;5090019;28;20382;-74
2023/09/21 04:17:50;;;;;;;8.02;2.88;;;18.30;38.10;;;;;;5091422;28;20385;-78
2023/09/21 04:20:18;;;;;;;3.90;2.70;;;18.40;37.50;;;;;;5091171;28;20382;-75
2023/09/21 04:22:45;;;;;;;4.77;2.80;;;18.40;37.20;;;;;;5090707;28;20382;-75
2023/09/21 04:25:13;;;;;;;8.35;2.80;;;18.60;37.00;;;;;;5091409;28;20389;-75
2023/09/21 04:27:42;;;;;;;5.18;2.80;;;18.60;36.90;;;;;;5091853;28;20378;-74
2023/09/21 04:30:15;;;;;;;4.80;2.60;;;18.60;36.50;;;;;;5094625;28;20388;-76
2023/09/21 04:32:42;;;;;;;7.85;2.92;;;18.60;36.20;;;;;;5092344;28;20402;-75
2023/09/21 04:35:08;;;;;;;6.20;3.30;;;18.60;36.90;;;;;;5090665;28;20855;-75
2023/09/21 04:37:34;;;;;;;5.25;3.08;;;18.60;36.50;;;;;;5090780;28;20453;-74
2023/09/21 04:40:10;;;;;;;5.82;2.90;;;18.70;36.30;;;;;;5090901;28;20412;-74
2023/09/21 04:42:39;;;;;;;4.70;2.80;;;18.70;35.70;;;;;;5089317;28;20378;-75
2023/09/21 04:45:10;;;;;;;4.50;2.80;;;18.80;36.00;;;;;;5090900;28;20751;-75
2023/09/21 04:47:41;;;;;;;4.53;3.00;;;18.70;35.30;;;;;;5090663;28;20878;-75
2023/09/21 04:50:09;;;;;;;9.25;3.35;;;18.70;36.30;;;;;;5090371;28;20382;-76
2023/09/21 04:52:35;;;;;;;5.82;3.10;;;18.70;36.30;;;;;;5090676;28;20425;-77
2023/09/21 04:55:03;;;;;;;4.70;2.90;;;18.70;36.10;;;;;;5090642;28;20894;-75
2023/09/21 04:57:30;;;;;;;5.22;2.97;;;18.80;35.80;;;;;;5090435;28;20412;-76
2023/09/21 04:59:56;;;;;;;5.75;3.58;;;18.70;35.80;;;;;;5089084;28;20781;-75
2023/09/21 05:02:22;;;;;;;7.63;3.40;;;18.60;36.20;;;;;;5088887;28;20386;-76
2023/09/21 05:04:47;;;;;;;7.47;3.20;;;18.50;36.50;;;;;;5088902;28;20594;-78
2023/09/21 05:07:17;;;;;;;8.07;3.00;;;18.40;37.20;;;;;;5090131;28;20394;-76
2023/09/21 05:09:45;;;;;;;6.93;2.95;;;18.30;37.60;;;;;;5090392;28;20792;-76
2023/09/21 05:12:12;;;;;;;75.50;49.35;;;18.30;37.30;;;;;;5093955;28;20431;-77
2023/09/21 05:14:38;;;;;;;6.50;4.60;;;18.20;38.10;;;;;;5094017;28;20374;-75
2023/09/21 05:17:05;;;;;;;17.03;11.83;;;18.20;37.60;;;;;;5090535;28;20885;-74
2023/09/21 05:19:32;;;;;;;8.10;3.10;;;18.10;38.30;;;;;;5089024;28;20424;-75
2023/09/21 05:21:59;;;;;;;12.60;7.43;;;18.10;38.10;;;;;;5090423;28;20473;-76
2023/09/21 05:24:25;;;;;;;9.63;4.80;;;18.10;38.70;;;;;;5090970;28;20378;-75
2023/09/21 05:26:52;;;;;;;4.65;3.00;;;18.20;38.60;;;;;;5090419;28;20618;-75
2023/09/21 05:29:19;;;;;;;13.30;8.80;;;18.10;38.40;;;;;;5090274;28;20386;-75
2023/09/21 05:31:45;;;;;;;12.52;5.25;;;18.20;38.60;;;;;;5089998;28;20397;-75
2023/09/21 05:34:11;;;;;;;9.70;5.87;;;18.20;38.50;;;;;;5091894;28;20418;-75
2023/09/21 05:36:36;;;;;;;11.80;7.37;;;18.20;38.40;;;;;;5093118;28;20458;-76
2023/09/21 05:39:04;;;;;;;24.08;18.15;;;18.20;38.60;;;;;;5094499;28;20385;-75
2023/09/21 05:41:31;;;;;;;12.43;7.85;;;18.30;38.60;;;;;;5092935;28;21028;-74
2023/09/21 05:43:57;;;;;;;11.35;6.20;;;18.30;38.40;;;;;;5095210;28;20385;-77
2023/09/21 05:46:22;;;;;;;5.80;3.40;;;18.20;38.90;;;;;;5095114;28;20815;-76
2023/09/21 05:48:48;;;;;;;8.90;6.00;;;18.30;38.60;;;;;;5094843;28;20716;-76
2023/09/21 05:51:14;;;;;;;9.95;4.35;;;18.30;38.50;;;;;;5094054;28;20453;-76
2023/09/21 05:53:40;;;;;;;10.98;3.55;;;18.40;38.50;;;;;;5095637;28;20398;-76
2023/09/21 05:56:06;;;;;;;6.17;3.20;;;18.50;38.10;;;;;;5096364;28;20516;-76
2023/09/21 05:58:32;;;;;;;4.63;2.83;;;18.50;38.00;;;;;;5097173;28;20378;-75
2023/09/21 06:00:59;;;;;;;6.97;3.25;;;18.50;38.30;;;;;;5092308;28;20386;-76
2023/09/21 06:03:27;;;;;;;5.85;3.35;;;18.50;38.30;;;;;;5089214;28;20402;-76
2023/09/21 06:05:53;;;;;;;4.63;2.92;;;18.50;38.40;;;;;;5077289;28;20879;-75
2023/09/21 06:08:19;;;;;;;4.68;3.13;;;18.60;38.10;;;;;;5073751;28;20743;-75
2023/09/21 06:10:45;;;;;;;5.57;2.90;;;18.70;37.70;;;;;;5074975;28;20398;-75
2023/09/21 06:13:12;;;;;;;4.68;3.08;;;18.80;37.30;;;;;;5081318;28;20424;-76
2023/09/21 06:15:47;;;;;;;6.43;3.20;;;18.90;36.90;;;;;;5088535;28;20386;-75
2023/09/21 06:18:14;;;;;;;6.93;3.20;;;19.00;36.10;;;;;;5080005;28;20457;-76
2023/09/21 06:20:41;;;;;;;7.65;3.72;;;19.00;36.60;;;;;;5088403;28;20387;-75
2023/09/21 06:23:07;;;;;;;7.60;3.73;;;19.10;36.40;;;;;;5092474;28;20536;-74
2023/09/21 06:25:34;;;;;;;7.80;3.25;;;19.20;36.10;;;;;;5073681;28;20390;-75
2023/09/21 06:28:00;;;;;;;5.38;3.60;;;19.20;35.70;;;;;;5071007;28;20395;-74
2023/09/21 06:30:26;;;;;;;7.77;3.30;;;19.30;35.80;;;;;;5074343;28;20827;-75
2023/09/21 06:32:55;;;;;;;6.20;3.13;;;19.30;35.70;;;;;;5080962;28;20411;-75
2023/09/21 06:35:23;;;;;;;5.45;3.08;;;19.50;36.00;;;;;;5069370;28;20427;-76
2023/09/21 06:37:54;;;;;;;6.22;3.10;;;19.70;34.60;;;;;;5080486;28;20738;-75
2023/09/21 06:40:25;;;;;;;7.50;3.20;;;19.70;34.40;;;;;;5087458;28;20455;-75
2023/09/21 06:42:51;;;;;;;4.32;3.15;;;19.80;34.10;;;;;;5082242;28;20939;-76
2023/09/21 06:45:17;;;;;;;4.50;2.88;;;19.80;34.60;;;;;;5081394;28;20704;-75
2023/09/21 06:47:43;;;;;;;7.03;3.10;;;19.70;34.90;;;;;;5086354;28;20395;-75
2023/09/21 06:50:11;;;;;;;11.93;3.20;;;19.70;34.60;;;;;;5070194;28;20380;-75
2023/09/21 06:52:37;;;;;;;8.65;3.30;;;19.70;34.60;;;;;;5069110;28;20915;-75
2023/09/21 06:55:05;;;;;;;11.00;3.95;;;19.70;34.90;;;;;;5069242;28;20945;-75
2023/09/21 06:57:31;;;;;;;9.02;3.28;;;19.70;35.30;;;;;;5087322;28;20525;-76
2023/09/21 06:59:57;;;;;;;8.00;2.78;;;19.70;35.00;;;;;;5078092;28;20443;-76
2023/09/21 07:02:24;;;;;;;8.02;3.30;;;19.80;34.70;;;;;;5089310;28;20481;-76
2023/09/21 07:04:50;;;;;;;5.72;2.72;;;19.80;34.60;;;;;;5086461;28;20398;-76
2023/09/21 07:07:16;;;;;;;5.60;3.10;;;19.90;34.50;;;;;;5090060;28;20408;-75
2023/09/21 07:09:44;;;;;;;3.65;2.55;;;20.20;34.10;;;;;;5075577;28;20873;-75
2023/09/21 07:12:11;;;;;;;4.63;2.60;;;20.40;32.40;;;;;;5072004;28;20414;-76
2023/09/21 07:14:36;;;;;;;4.50;2.90;;;20.50;32.80;;;;;;5090756;28;20428;-76
2023/09/21 07:17:05;;;;;;;5.20;2.50;;;20.70;32.20;;;;;;5078775;28;20858;-76
2023/09/21 07:19:31;;;;;;;6.80;3.00;;;20.90;31.80;;;;;;5085253;28;20775;-75
2023/09/21 07:21:57;;;;;;;5.40;2.92;;;21.00;31.20;;;;;;5090024;28;21133;-76
2023/09/21 07:24:22;;;;;;;5.72;3.30;;;21.20;31.00;;;;;;5089940;28;20386;-75
2023/09/21 07:26:49;;;;;;;3.90;3.08;;;21.30;30.80;;;;;;5088038;28;20839;-75
2023/09/21 07:29:14;;;;;;;6.95;3.10;;;21.40;30.60;;;;;;5075518;28;20407;-75
2023/09/21 07:31:40;;;;;;;5.07;3.17;;;21.50;29.80;;;;;;5068737;28;20406;-75
2023/09/21 07:34:06;;;;;;;6.27;3.27;;;21.50;30.20;;;;;;5069312;28;20392;-76
2023/09/21 07:36:35;;;;;;;6.10;3.35;;;21.40;29.90;;;;;;5067759;28;20399;-76
2023/09/21 07:39:03;;;;;;;7.68;3.35;;;21.50;30.10;;;;;;5069530;28;20964;-76
2023/09/21 07:41:29;;;;;;;6.63;3.42;;;21.50;30.50;;;;;;5067089;28;20449;-75
2023/09/21 07:43:55;;;;;;;5.40;3.40;;;21.50;30.40;;;;;;5068993;28;20383;-76
2023/09/21 07:46:20;;;;;;;5.60;3.90;;;21.60;30.20;;;;;;5070606;28;20452;-75
2023/09/21 07:48:48;;;;;;;5.93;3.13;;;21.50;30.70;;;;;;5079330;28;20888;-74
2023/09/21 07:51:14;;;;;;;6.63;3.47;;;21.50;31.00;;;;;;5071261;28;20386;-77
2023/09/21 07:53:40;;;;;;;6.07;2.60;;;21.50;30.90;;;;;;5072042;28;20408;-77
2023/09/21 07:56:06;;;;;;;8.23;3.13;;;21.60;30.90;;;;;;5073881;28;20513;-76
2023/09/21 07:58:31;;;;;;;7.95;2.90;;;21.60;30.60;;;;;;5089865;28;20390;-77
2023/09/21 08:00:57;;;;;;;7.47;2.78;;;21.80;29.50;;;;;;5093172;28;20374;-76
2023/09/21 08:03:26;;;;;;;5.40;2.90;;;21.80;30.00;;;;;;5093011;28;20382;-75
2023/09/21 08:05:53;;;;;;;7.47;3.40;;;21.90;30.10;;;;;;5092324;28;20389;-76
2023/09/21 08:08:18;;;;;;;10.20;3.58;;;22.10;30.00;;;;;;5092503;28;20400;-75
2023/09/21 08:10:44;;;;;;;5.30;3.45;;;22.20;29.60;;;;;;5092458;28;20862;-74
2023/09/21 08:13:10;;;;;;;5.67;3.30;;;22.20;29.60;;;;;;5091027;28;20483;-76
2023/09/21 08:15:36;;;;;;;8.65;3.10;;;22.30;29.80;;;;;;5091997;28;20858;-76
2023/09/21 08:18:02;;;;;;;6.37;3.07;;;22.40;29.50;;;;;;5090188;28;20394;-75
2023/09/21 08:20:28;;;;;;;5.20;2.92;;;22.40;29.60;;;;;;5090330;28;20412;-76
2023/09/21 08:22:53;;;;;;;7.70;3.40;;;22.50;30.40;;;;;;5091317;28;20386;-75
2023/09/21 08:25:19;;;;;;;5.32;3.10;;;22.60;29.60;;;;;;5090467;28;20401;-76
2023/09/21 08:27:46;;;;;;;8.23;3.63;;;22.70;29.10;;;;;;5091527;28;20386;-75
2023/09/21 08:30:12;;;;;;;10.10;4.30;;;22.70;29.50;;;;;;5091213;28;20393;-75
2023/09/21 08:32:39;;;;;;;6.10;3.28;;;22.90;29.20;;;;;;5090929;28;20405;-76
2023/09/21 08:35:05;;;;;;;9.98;3.28;;;23.00;28.90;;;;;;5091312;28;20461;-76
2023/09/21 08:37:31;;;;;;;9.55;3.63;;;23.10;28.60;;;;;;5092014;28;20872;-75
2023/09/21 08:39:57;;;;;;;5.65;3.08;;;23.20;27.30;;;;;;5092831;28;20381;-78
2023/09/21 08:42:23;;;;;;;8.30;3.40;;;23.40;27.70;;;;;;5094149;28;20472;-78
2023/09/21 08:44:49;;;;;;;6.20;3.33;;;23.50;27.20;;;;;;5095337;28;20755;-79
2023/09/21 08:47:15;;;;;;;6.25;3.60;;;23.60;26.70;;;;;;5096386;28;20388;-76
2023/09/21 08:49:47;;;;;;;5.60;3.00;;;23.80;26.60;;;;;;5095374;28;20454;-76
2023/09/21 08:52:13;;;;;;;5.32;3.40;;;23.80;25.80;;;;;;5096344;28;20434;-74
2023/09/21 08:54:46;;;;;;;6.97;3.15;;;23.90;26.60;;;;;;5101910;28;20381;-76
2023/09/21 08:57:12;;;;;;;8.10;3.40;;;24.00;26.40;;;;;;5093386;28;20385;-76
2023/09/21 08:59:41;;;;;;;6.88;3.00;;;24.10;25.70;;;;;;5092074;28;20734;-77
2023/09/21 09:02:12;;;;;;;9.32;3.20;;;24.30;25.50;;;;;;5092804;28;20394;-77
2023/09/21 09:04:42;;;;;;;8.98;3.60;;;24.30;25.30;;;;;;5092253;28;20394;-76
2023/09/21 09:07:10;;;;;;;8.35;3.10;;;24.40;25.30;;;;;;5093023;28;20382;-76
2023/09/21 09:09:39;;;;;;;6.93;3.00;;;24.30;25.40;;;;;;5092910;28;20401;-76
2023/09/21 09:12:23;;;;;;;7.43;3.50;;;24.20;25.20;;;;;;5092681;28;20455;-75
2023/09/21 09:14:54;;;;;;;10.30;3.38;;;24.30;25.30;;;;;;5091072;28;20533;-75
2023/09/21 09:17:19;;;;;;;6.13;3.10;;;24.50;25.30;;;;;;5096764;28;20381;-75
2023/09/21 09:19:50;;;;;;;9.30;3.30;;;24.60;24.80;;;;;;5101011;28;20378;-76
2023/09/21 09:22:16;;;;;;;7.40;3.25;;;24.80;24.20;;;;;;5100916;28;20400;-76
2023/09/21 09:24:45;;;;;;;5.10;3.25;;;24.90;23.60;;;;;;5101459;28;20755;-76
2023/09/21 09:27:10;;;;;;;7.37;3.03;;;25.00;23.20;;;;;;5102714;28;20393;-76
2023/09/21 09:29:56;;;;;;;7.05;3.47;;;25.00;23.60;;;;;;5098486;28;20386;-75
2023/09/21 09:32:23;;;;;;;4.50;2.70;;;25.20;23.10;;;;;;5092427;28;20525;-75
2023/09/21 09:34:49;;;;;;;8.87;2.80;;;25.20;22.70;;;;;;5096963;28;20474;-75
2023/09/21 09:37:16;;;;;;;6.18;3.10;;;25.20;23.00;;;;;;5090941;28;20417;-76
2023/09/21 09:39:47;;;;;;;6.65;3.00;;;25.40;22.50;;;;;;5094310;28;20386;-76
2023/09/21 09:42:15;;;;;;;8.00;3.28;;;25.30;22.60;;;;;;5092819;28;20963;-76
2023/09/21 09:44:46;;;;;;;6.00;3.45;;;25.20;22.90;;;;;;5093855;28;20843;-76
2023/09/21 09:47:16;;;;;;;6.40;2.80;;;25.30;22.80;;;;;;5093792;28;20381;-75
2023/09/21 09:49:46;;;;;;;7.57;3.17;;;25.10;23.60;;;;;;5096492;28;20390;-75
2023/09/21 09:52:13;;;;;;;7.68;3.42;;;25.00;23.60;;;;;;5092801;28;20400;-74
2023/09/21 09:54:41;;;;;;;8.13;3.00;;;24.90;23.60;;;;;;5092850;28;20431;-76
2023/09/21 09:57:13;;;;;;;6.10;3.20;;;24.80;24.40;;;;;;5094496;28;20378;-76
2023/09/21 09:59:41;;;;;;;6.30;3.00;;;24.90;24.40;;;;;;5091328;28;20424;-74
2023/09/21 10:02:13;;;;;;;6.78;3.00;;;25.00;24.30;;;;;;5089139;28;20780;-76
2023/09/21 10:04:40;;;;;;;7.00;2.90;;;25.00;24.60;;;;;;5090887;28;20378;-75
2023/09/21 10:07:06;;;;;;;5.95;2.90;;;25.10;23.50;;;;;;5094754;28;20382;-75
2023/09/21 10:09:32;;;;;;;4.93;2.47;;;25.10;23.80;;;;;;5099748;28;20858;-74
2023/09/21 10:12:00;;;;;;;6.05;3.00;;;25.20;23.90;;;;;;5090812;28;20459;-76
2023/09/21 10:14:25;;;;;;;13.20;3.40;;;25.20;23.70;;;;;;5091443;28;20406;-76
2023/09/21 10:16:55;;;;;;;8.60;2.93;;;25.40;24.20;;;;;;5091162;28;20915;-75
2023/09/21 10:19:30;;;;;;;8.35;3.08;;;25.50;23.10;;;;;;5091159;28;20738;-75
2023/09/21 10:22:03;;;;;;;4.50;3.10;;;25.70;22.20;;;;;;5093117;28;20481;-75
2023/09/21 10:24:30;;;;;;;4.73;2.40;;;25.80;22.50;;;;;;5092769;28;20418;-75
2023/09/21 10:27:03;;;;;;;6.35;2.97;;;25.60;22.60;;;;;;5094201;28;20390;-75
2023/09/21 10:29:39;;;;;;;5.50;2.60;;;25.60;22.10;;;;;;5093930;28;20419;-75
2023/09/21 10:32:09;;;;;;;3.83;2.50;;;25.50;22.30;;;;;;5092153;28;20402;-74
2023/09/21 10:34:45;;;;;;;7.60;3.30;;;25.50;22.20;;;;;;5093058;28;20398;-77
2023/09/21 10:37:10;;;;;;;3.17;2.38;;;25.60;21.90;;;;;;5094387;28;20374;-75
2023/09/21 10:39:42;;;;;;;3.65;2.60;;;25.90;21.30;;;;;;5097256;28;20476;-75
2023/09/21 10:42:07;;;;;;;5.05;2.53;;;25.80;21.30;;;;;;5096182;28;20866;-74
2023/09/21 10:45:12;;;;;;;5.38;2.70;;;25.70;21.40;;;;;;5094697;28;20401;-76
2023/09/21 10:47:44;;;;;;;6.25;3.05;;;25.60;21.70;;;;;;5093375;28;20434;-76
2023/09/21 10:50:12;;;;;;;6.65;3.10;;;25.50;22.50;;;;;;5095074;28;20770;-75
2023/09/21 10:52:45;;;;;;;5.43;2.90;;;25.30;22.80;;;;;;5089620;28;20399;-76
2023/09/21 10:55:13;;;;;;;9.85;2.90;;;25.20;23.60;;;;;;5083420;28;20396;-75
2023/09/21 10:57:41;;;;;;;5.10;2.90;;;25.20;23.60;;;;;;5078372;28;20437;-76
2023/09/21 11:00:15;;;;;;;6.28;3.00;;;25.20;23.60;;;;;;5090611;28;20422;-75
2023/09/21 11:02:42;;;;;;;5.57;2.70;;;25.20;23.60;;;;;;5078631;28;20396;-75
2023/09/21 11:05:08;;;;;;;5.68;3.10;;;25.00;24.00;;;;;;5070480;28;20598;-74
2023/09/21 11:07:34;;;;;;;8.80;2.70;;;24.70;24.60;;;;;;5069704;28;20387;-75
2023/09/21 11:09:59;;;;;;;7.97;2.80;;;24.40;24.70;;;;;;5068812;28;20907;-74
2023/09/21 11:12:25;;;;;;;4.53;2.78;;;24.40;25.10;;;;;;5074558;28;20399;-74
2023/09/21 11:14:51;;;;;;;5.93;2.40;;;24.10;25.80;;;;;;5080642;28;20433;-76
2023/09/21 11:17:18;;;;;;;5.60;2.60;;;23.90;26.60;;;;;;5071301;28;20383;-75
2023/09/21 11:19:45;;;;;;;7.50;2.97;;;23.70;27.20;;;;;;5069376;28;20470;-74
2023/09/21 11:22:14;;;;;;;6.28;2.60;;;23.50;27.50;;;;;;5070271;28;20475;-75
2023/09/21 11:24:41;;;;;;;6.40;2.70;;;23.40;28.10;;;;;;5071307;28;20395;-75
2023/09/21 11:27:09;;;;;;;6.85;2.72;;;23.40;28.60;;;;;;5071479;28;20387;-76
2023/09/21 11:29:36;;;;;;;4.53;2.50;;;23.30;29.20;;;;;;5070976;28;20383;-76
2023/09/21 11:32:02;;;;;;;6.93;3.30;;;23.20;29.00;;;;;;5071083;28;20979;-76
2023/09/21 11:34:29;;;;;;;8.43;2.50;;;23.20;29.10;;;;;;5074467;28;20437;-76
2023/09/21 11:36:55;;;;;;;7.35;3.20;;;23.30;28.60;;;;;;5077253;28;20387;-76
2023/09/21 11:39:28;;;;;;;8.88;2.75;;;23.20;28.70;;;;;;5078395;28;20395;-76
2023/09/21 11:41:54;;;;;;;10.98;3.40;;;23.30;29.50;;;;;;5079780;28;20836;-76
2023/09/21 11:44:20;;;;;;;7.47;2.80;;;23.30;29.10;;;;;;5079616;28;20388;-74
2023/09/21 11:46:48;;;;;;;5.53;2.80;;;23.10;29.40;;;;;;5073832;28;20417;-75
2023/09/21 11:49:14;;;;;;;6.05;2.90;;;23.00;29.70;;;;;;5073601;28;20394;-75
2023/09/21 11:51:43;;;;;;;3.80;2.70;;;23.00;29.70;;;;;;5070559;28;20384;-76
2023/09/21 11:54:11;;;;;;;5.10;2.67;;;22.80;29.90;;;;;;5072350;28;20407;-74
2023/09/21 11:56:37;;;;;;;6.80;3.40;;;22.80;30.60;;;;;;5071993;28;20390;-75
2023/09/21 11:59:06;;;;;;;5.95;2.63;;;22.70;30.60;;;;;;5071671;28;20455;-75
2023/09/21 12:01:34;;;;;;;6.87;3.40;;;22.50;30.70;;;;;;5072066;28;20883;-76
2023/09/21 12:04:00;;;;;;;4.40;2.67;;;22.50;31.10;;;;;;5071376;28;20375;-75
2023/09/21 12:06:27;;;;;;;6.03;2.90;;;22.50;31.30;;;;;;5069933;28;20382;-75
2023/09/21 12:08:53;;;;;;;7.88;2.78;;;22.40;31.50;;;;;;5074836;28;20394;-75
2023/09/21 12:11:21;;;;;;;4.95;2.55;;;22.50;31.60;;;;;;5071172;28;20387;-76
2023/09/21 12:13:46;;;;;;;6.10;3.45;;;22.50;31.80;;;;;;5071444;28;20472;-76
2023/09/21 12:16:12;;;;;;;4.78;2.40;;;22.50;32.00;;;;;;5071246;28;20376;-76
2023/09/21 12:18:37;;;;;;;5.77;3.30;;;22.50;32.80;;;;;;5071450;28;20379;-74
2023/09/21 12:21:03;;;;;;;8.45;3.20;;;22.60;33.00;;;;;;5070843;28;20375;-76
2023/09/21 12:23:31;;;;;;;4.60;3.07;;;22.70;32.70;;;;;;5071150;28;20379;-75
2023/09/21 12:25:56;;;;;;;8.65;3.10;;;22.80;33.20;;;;;;5071200;28;20879;-76
2023/09/21 12:28:22;;;;;;;5.97;3.00;;;22.70;32.40;;;;;;5071117;28;20391;-75
2023/09/21 12:30:48;;;;;;;8.00;3.20;;;22.70;32.60;;;;;;5071302;28;20415;-76
2023/09/21 12:33:15;;;;;;;6.57;3.42;;;22.70;33.00;;;;;;5069154;28;20403;-75
2023/09/21 12:35:41;;;;;;;10.05;3.17;;;22.70;32.90;;;;;;5070704;28;20382;-75
2023/09/21 12:38:07;;;;;;;6.88;3.20;;;22.70;32.70;;;;;;5070825;28;20403;-76
2023/09/21 12:40:33;;;;;;;8.25;3.58;;;22.70;32.00;;;;;;5071144;28;20375;-76
2023/09/21 12:42:58;;;;;;;4.33;2.60;;;23.00;31.30;;;;;;5068757;28;20386;-76
2023/09/21 12:45:24;;;;;;;6.63;3.03;;;23.00;31.20;;;;;;5071110;28;20536;-75
2023/09/21 12:47:50;;;;;;;9.33;3.53;;;23.00;31.10;;;;;;5071146;28;20483;-74